Revillo, SD (57259)

1:19 AM CDT on October 21, 2014 (GMT -0500)
Madison-Lac Qui Parle County | Change Station
CLOSE
Current Station
Airport
Location: Madison,
Elevation: 1083 ft
Nearby Weather Stations

Elev 1083 ft 44.98 °N, 96.18 °W | Updated 5 minutes ago

Clear
Clear
41 °F
Feels Like 41 °F
N
0
Wind Variable Wind from North

Today
High -- | Low -- °F
--% Chance of Precip.
Yesterday
High -- | Low -- °F
Precip. -- in
7:49 AM 6:31 PM
Waning Crescent, 7% visible
Pressure 30.07 in
Visibility 10.0 miles
Clouds Clear
Dew Point 36 °F
Humidity 81%
Rainfall 0.00 in
Snow Depth Not available.
UV 0 out of 12
Pollen 1.50 out of 12
Air Quality Not available.
Flu Activity Sporadic
METAR KDXX 210614Z AUTO 00000KT 10SM CLR 05/02 A3007 RMK AO2

More Conditions Fewer Conditions

Pressure 30.07 in
Visibility 10.0 miles
Clouds Clear
Dew Point 36 °F
Humidity 81%
Rainfall 0.00 in
Snow Depth Not available.
UV 0 out of 12
Pollen 1.50 out of 12
Air Quality Not available.
Flu Activity Sporadic
METAR KDXX 210614Z AUTO 00000KT 10SM CLR 05/02 A3007 RMK AO2

More Conditions Fewer Conditions

10-Day Weather Forecast

Almanac

Astronomy

Oct. 21, 2014 Rise Set
Actual Time 7:49 AM CDT 6:31 PM CDT
Civil Twilight 7:19 AM CDT 7:00 PM CDT
Nautical Twilight 6:45 AM CDT 7:35 PM CDT
Astronomical Twilight 6:11 AM CDT 8:08 PM CDT
Moon 5:29 AM CDT 5:30 PM CDT
Length of Visible Light 11h 40m
Length of Day
10h 41m
Tomorrow will be 2m 58s shorter.
Waning Crescent, 7% of the Moon is Illuminated
Today
Waning Crescent
Oct 23
New
Oct 30
First Quarter
Nov 6
Full
Nov 14
Last Quarter

Today's Extremes

State Highs State Lows

Community

WunderPhotos

Upload Photos

1,763,614 photos uploaded!

Nearby

Snow Depth

Station Depth Elevation
North Rapid Creek 0 in 6130 ft
Blind Park 0 in 6890 ft

Earthquake Activity

City Distance Mag. Time & Date
No recent earthquake activity has been reported nearby.
Minimum magnitude displayed is 2.5.

Coastal Water Temperatures

Place Temperature
No Stations Reporting

Nearby Weather Stations